createdAt,value
2018-04-26T00:00:36.993Z,18.10
2018-04-26T00:03:03.966Z,18.10
2018-04-26T00:05:31.661Z,18.10
2018-04-26T00:07:58.570Z,18.10
2018-04-26T00:10:25.465Z,18.10
2018-04-26T00:12:52.358Z,18.10
2018-04-26T00:15:19.988Z,18.10
2018-04-26T00:17:46.974Z,18.00
2018-04-26T00:20:13.849Z,18.00
2018-04-26T00:22:40.782Z,17.90
2018-04-26T00:25:08.377Z,17.80
2018-04-26T00:27:35.297Z,17.80
2018-04-26T00:30:02.192Z,17.70
2018-04-26T00:32:29.701Z,17.80
2018-04-26T00:34:56.589Z,17.80
2018-04-26T00:37:23.472Z,17.70
2018-04-26T00:39:52.013Z,17.70
2018-04-26T00:42:18.940Z,17.70
2018-04-26T00:44:45.817Z,17.70
2018-04-26T00:47:13.781Z,17.70
2018-04-26T00:49:40.694Z,17.70
2018-04-26T00:52:08.401Z,17.70
2018-04-26T00:54:35.853Z,17.60
2018-04-26T00:57:02.741Z,17.50
2018-04-26T00:59:29.620Z,17.30
2018-04-26T01:01:56.670Z,17.20
2018-04-26T01:04:25.001Z,17.20
2018-04-26T01:06:52.785Z,17.10
2018-04-26T01:09:19.688Z,16.90
2018-04-26T01:11:47.316Z,16.80
2018-04-26T01:14:14.201Z,16.80
2018-04-26T01:16:43.204Z,16.80
2018-04-26T01:19:10.894Z,16.80
2018-04-26T01:21:37.796Z,16.70
2018-04-26T01:24:05.427Z,16.50
2018-04-26T01:26:32.304Z,16.50
2018-04-26T01:29:00.744Z,16.40
2018-04-26T01:31:27.641Z,16.40
2018-04-26T01:33:54.556Z,16.40
2018-04-26T01:36:34.293Z,16.40
2018-04-26T01:39:01.192Z,16.40
2018-04-26T01:41:29.240Z,16.40
2018-04-26T01:43:56.132Z,16.30
2018-04-26T01:46:22.988Z,16.30
2018-04-26T01:48:49.869Z,16.20
2018-04-26T01:51:16.797Z,16.10
2018-04-26T01:53:44.701Z,16.00
2018-04-26T01:56:11.585Z,16.00
2018-04-26T01:58:39.564Z,15.90
2018-04-26T02:01:06.455Z,15.80
2018-04-26T02:03:34.686Z,15.70
2018-04-26T02:06:02.856Z,15.60
2018-04-26T02:08:32.350Z,15.60
2018-04-26T02:10:59.241Z,15.50
2018-04-26T02:13:26.649Z,15.50
2018-04-26T02:15:56.021Z,15.40
2018-04-26T02:18:22.917Z,15.50
2018-04-26T02:20:50.544Z,15.50
2018-04-26T02:23:17.484Z,15.50
2018-04-26T02:25:44.502Z,15.50
2018-04-26T02:28:12.657Z,15.50
2018-04-26T02:30:39.539Z,15.50
2018-04-26T02:33:06.412Z,15.50
2018-04-26T02:35:35.628Z,15.60
2018-04-26T02:38:03.244Z,15.60
2018-04-26T02:40:30.517Z,15.60
2018-04-26T02:42:57.396Z,15.60
2018-04-26T02:45:25.096Z,15.30
2018-04-26T02:47:51.963Z,15.30
2018-04-26T02:50:22.304Z,15.10
2018-04-26T02:52:50.162Z,15.00
2018-04-26T02:55:17.096Z,15.00
2018-04-26T02:57:44.453Z,14.90
2018-04-26T03:00:11.337Z,14.90
2018-04-26T03:02:38.220Z,14.70
2018-04-26T03:05:07.488Z,14.70
2018-04-26T03:07:34.356Z,14.50
2018-04-26T03:10:01.277Z,14.50
2018-04-26T03:12:29.107Z,14.40
2018-04-26T03:14:55.968Z,14.20
2018-04-26T03:17:23.301Z,14.20
2018-04-26T03:19:50.197Z,14.10
2018-04-26T03:22:17.065Z,14.00
2018-04-26T03:24:43.988Z,14.00
2018-04-26T03:27:11.318Z,14.00
2018-04-26T03:29:38.645Z,13.90
2018-04-26T03:32:05.529Z,13.80
2018-04-26T03:34:32.441Z,13.70
2018-04-26T03:37:00.065Z,13.50
2018-04-26T03:39:26.973Z,13.50
2018-04-26T03:41:53.893Z,13.40
2018-04-26T03:44:21.536Z,13.30
2018-04-26T03:46:48.432Z,13.30
2018-04-26T03:49:16.964Z,13.30
2018-04-26T03:51:43.925Z,13.20
2018-04-26T03:54:12.384Z,13.10
2018-04-26T03:56:40.273Z,13.10
2018-04-26T03:59:07.145Z,12.90
2018-04-26T04:01:46.145Z,13.10
2018-04-26T04:04:26.623Z,13.20
2018-04-26T04:06:53.546Z,13.20
2018-04-26T04:09:20.416Z,13.20
2018-04-26T04:11:48.018Z,13.30
2018-04-26T04:14:15.689Z,13.40
2018-04-26T04:16:42.969Z,13.50
2018-04-26T04:19:09.860Z,13.60
2018-04-26T04:21:37.200Z,13.70
2018-04-26T04:24:04.121Z,13.70
2018-04-26T04:26:31.007Z,13.70
2018-04-26T04:28:59.724Z,13.80
2018-04-26T04:31:26.645Z,13.80
2018-04-26T04:33:53.529Z,13.80
2018-04-26T04:36:21.144Z,13.80
2018-04-26T04:38:49.265Z,13.80
2018-04-26T04:41:16.552Z,13.90
2018-04-26T04:43:46.201Z,13.90
2018-04-26T04:46:13.068Z,14.00
2018-04-26T04:48:39.984Z,14.00
2018-04-26T04:51:07.342Z,14.00
2018-04-26T04:53:34.232Z,13.90
2018-04-26T04:56:01.089Z,13.90
2018-04-26T04:58:27.965Z,14.00
2018-04-26T05:00:54.824Z,14.00
2018-04-26T05:03:21.896Z,14.10
2018-04-26T05:05:48.764Z,14.10
2018-04-26T05:08:15.668Z,14.10
2018-04-26T05:10:42.524Z,14.20
2018-04-26T05:13:11.039Z,14.30
2018-04-26T05:15:38.797Z,14.40
2018-04-26T05:18:05.697Z,14.40
2018-04-26T05:20:32.575Z,14.50
2018-04-26T05:22:59.441Z,14.50
2018-04-26T05:25:26.308Z,14.60
2018-04-26T05:27:54.295Z,14.50
2018-04-26T05:30:21.200Z,14.50
2018-04-26T05:32:48.809Z,14.50
2018-04-26T05:35:16.955Z,14.60
2018-04-26T05:37:43.844Z,14.60
2018-04-26T05:40:10.757Z,14.90
2018-04-26T05:42:37.708Z,15.00
2018-04-26T05:45:05.312Z,15.30
2018-04-26T05:47:32.220Z,15.30
2018-04-26T05:49:59.170Z,15.40
2018-04-26T05:52:27.212Z,15.40
2018-04-26T05:54:54.072Z,15.40
2018-04-26T05:57:22.049Z,15.60
2018-04-26T05:59:49.641Z,15.70
2018-04-26T06:02:16.580Z,15.70
2018-04-26T06:04:44.600Z,15.70
2018-04-26T06:07:11.469Z,15.80
2018-04-26T06:09:39.092Z,16.00
2018-04-26T06:12:06.041Z,16.00
2018-04-26T06:14:33.446Z,16.10
2018-04-26T06:17:00.447Z,16.20
2018-04-26T06:19:27.416Z,16.30
2018-04-26T06:21:55.064Z,16.90
2018-04-26T06:24:21.924Z,16.90
2018-04-26T06:26:49.137Z,17.30
2018-04-26T06:29:16.668Z,17.70
2018-04-26T06:31:43.538Z,18.10
2018-04-26T06:34:10.744Z,18.50
2018-04-26T06:36:37.617Z,18.90
2018-04-26T06:39:04.651Z,19.20
2018-04-26T06:41:33.040Z,19.70
2018-04-26T06:43:59.905Z,20.00
2018-04-26T06:46:26.764Z,20.10
2018-04-26T06:48:54.009Z,20.30
2018-04-26T06:51:20.876Z,20.70
2018-04-26T06:53:49.043Z,21.00
2018-04-26T06:56:16.661Z,21.30
2018-04-26T06:58:43.528Z,21.30
2018-04-26T07:01:10.444Z,21.30
2018-04-26T07:03:37.729Z,21.70
2018-04-26T07:06:05.452Z,21.90
2018-04-26T07:08:32.328Z,21.90
2018-04-26T07:10:59.292Z,21.90
2018-04-26T07:13:26.157Z,22.10
2018-04-26T07:15:53.051Z,22.30
2018-04-26T07:18:23.709Z,22.10
2018-04-26T07:20:57.144Z,22.30
2018-04-26T07:23:24.144Z,22.30
2018-04-26T07:25:51.017Z,22.20
2018-04-26T07:28:17.902Z,22.40
2018-04-26T07:30:47.577Z,22.60
2018-04-26T07:33:14.472Z,23.00
2018-04-26T07:35:41.373Z,23.50
2018-04-26T07:38:08.255Z,23.80
2018-04-26T07:40:35.139Z,23.60
2018-04-26T07:43:03.148Z,23.70
2018-04-26T07:45:30.419Z,23.60
2018-04-26T07:47:58.297Z,23.60
2018-04-26T07:50:25.240Z,23.40
2018-04-26T07:52:52.120Z,22.80
2018-04-26T07:55:21.669Z,23.00
2018-04-26T07:57:48.549Z,23.00
2018-04-26T08:00:16.488Z,22.90
2018-04-26T08:02:43.376Z,22.80
2018-04-26T08:05:11.004Z,22.40
2018-04-26T08:07:39.074Z,22.40
2018-04-26T08:10:05.958Z,22.30
2018-04-26T08:12:32.885Z,22.30
2018-04-26T08:15:00.545Z,22.50
2018-04-26T08:17:29.627Z,22.50
2018-04-26T08:19:56.769Z,22.40
2018-04-26T08:22:24.237Z,22.40
2018-04-26T08:24:51.121Z,22.50
2018-04-26T08:27:18.053Z,22.50
2018-04-26T08:29:44.952Z,22.40
2018-04-26T08:32:12.865Z,22.50
2018-04-26T08:34:39.744Z,22.60
2018-04-26T08:37:06.640Z,22.60
2018-04-26T08:39:33.532Z,22.60
2018-04-26T08:42:00.416Z,22.80
2018-04-26T08:44:30.245Z,22.80
2018-04-26T08:46:57.868Z,23.30
2018-04-26T08:49:24.745Z,23.30
2018-04-26T08:51:52.755Z,23.40
2018-04-26T08:54:19.681Z,23.40
2018-04-26T08:56:46.644Z,23.50
2018-04-26T08:59:13.525Z,23.30
2018-04-26T09:01:40.408Z,23.50
2018-04-26T09:04:07.305Z,23.70
2018-04-26T09:06:34.260Z,23.80
2018-04-26T09:09:03.524Z,23.90
2018-04-26T09:11:30.413Z,24.10
2018-04-26T09:13:58.168Z,24.40
2018-04-26T09:16:25.035Z,24.50
2018-04-26T09:18:51.924Z,24.50
2018-04-26T09:21:19.904Z,24.50
2018-04-26T09:23:46.805Z,24.50
2018-04-26T09:26:13.705Z,24.70
2018-04-26T09:28:40.594Z,24.60
2018-04-26T09:31:07.465Z,24.70
2018-04-26T09:33:34.433Z,24.90
2018-04-26T09:36:02.209Z,24.90
2018-04-26T09:38:29.136Z,25.10
2018-04-26T09:40:56.029Z,25.20
2018-04-26T09:43:23.664Z,25.20
2018-04-26T09:45:51.644Z,25.20
2018-04-26T09:48:19.287Z,25.40
2018-04-26T09:50:47.669Z,25.40
2018-04-26T09:53:14.553Z,25.40
2018-04-26T09:55:42.181Z,25.50
2018-04-26T09:58:10.545Z,25.50
2018-04-26T10:00:43.356Z,25.70
2018-04-26T10:03:10.993Z,25.70
2018-04-26T10:05:43.708Z,25.70
2018-04-26T10:08:13.104Z,26.00
2018-04-26T10:10:39.997Z,26.00
2018-04-26T10:13:06.876Z,26.10
2018-04-26T10:15:34.615Z,26.10
2018-04-26T10:18:01.495Z,26.10
2018-04-26T10:20:30.261Z,26.30
2018-04-26T10:22:57.148Z,26.30
2018-04-26T10:25:24.034Z,26.30
2018-04-26T10:27:50.920Z,26.60
2018-04-26T10:30:17.796Z,26.70
2018-04-26T10:32:45.434Z,26.70
2018-04-26T10:35:12.378Z,26.70
2018-04-26T10:37:39.749Z,26.60
2018-04-26T10:40:06.633Z,26.80
2018-04-26T10:42:33.517Z,26.60
2018-04-26T10:45:00.502Z,26.60
2018-04-26T10:47:27.392Z,26.50
2018-04-26T10:49:54.289Z,26.40
2018-04-26T10:52:21.659Z,26.60
2018-04-26T10:54:48.536Z,26.60
2018-04-26T10:57:16.430Z,26.70
2018-04-26T10:59:43.371Z,26.90
2018-04-26T11:02:10.261Z,27.10
2018-04-26T11:04:37.157Z,27.20
2018-04-26T11:07:04.597Z,27.30
2018-04-26T11:09:34.728Z,27.30
2018-04-26T11:12:01.605Z,27.30
2018-04-26T11:14:29.393Z,27.40
2018-04-26T11:16:56.256Z,27.50
2018-04-26T11:19:23.125Z,27.60
2018-04-26T11:21:51.842Z,27.40
2018-04-26T11:24:18.796Z,27.30
2018-04-26T11:26:45.686Z,27.60
2018-04-26T11:29:13.238Z,27.50
2018-04-26T11:31:40.124Z,27.40
2018-04-26T11:34:07.053Z,27.50
2018-04-26T11:36:34.768Z,27.60
2018-04-26T11:39:01.661Z,27.80
2018-04-26T11:41:28.538Z,27.90
2018-04-26T11:43:55.826Z,27.70
2018-04-26T11:46:23.324Z,27.90
2018-04-26T11:48:50.205Z,27.70
2018-04-26T11:51:17.180Z,27.80
2018-04-26T11:53:44.059Z,27.80
2018-04-26T11:56:10.944Z,27.70
2018-04-26T11:58:40.012Z,27.70
2018-04-26T12:01:06.901Z,27.90
2018-04-26T12:03:33.773Z,27.90
2018-04-26T12:06:01.398Z,27.90
2018-04-26T12:08:29.031Z,27.90
2018-04-26T12:10:57.233Z,27.80
2018-04-26T12:13:24.213Z,27.90
2018-04-26T12:15:51.098Z,27.90
2018-04-26T12:18:18.004Z,27.90
2018-04-26T12:20:45.306Z,27.80
2018-04-26T12:23:12.968Z,27.80
2018-04-26T12:25:39.857Z,27.70
2018-04-26T12:28:06.836Z,27.80
2018-04-26T12:30:33.725Z,27.80
2018-04-26T12:33:00.626Z,27.80
2018-04-26T12:35:28.757Z,27.90
2018-04-26T12:37:55.645Z,27.90
2018-04-26T12:40:22.758Z,27.80
2018-04-26T12:42:51.893Z,27.80
2018-04-26T12:45:18.838Z,27.90
2018-04-26T12:47:46.266Z,28.00
2018-04-26T12:50:14.279Z,28.00
2018-04-26T12:52:41.203Z,28.10
2018-04-26T12:55:08.153Z,28.10
2018-04-26T12:57:35.150Z,28.20
2018-04-26T13:00:03.858Z,28.20
2018-04-26T13:02:30.817Z,28.20
2018-04-26T13:04:57.868Z,28.20
2018-04-26T13:07:25.022Z,28.20
2018-04-26T13:09:52.207Z,27.90
2018-04-26T13:12:20.864Z,27.90
2018-04-26T13:14:47.745Z,27.90
2018-04-26T13:17:14.634Z,27.90
2018-04-26T13:19:41.924Z,28.00
2018-04-26T13:22:09.609Z,27.80
2018-04-26T13:24:37.345Z,27.80
2018-04-26T13:27:04.694Z,27.70
2018-04-26T13:29:31.637Z,27.70
2018-04-26T13:31:58.529Z,27.80
2018-04-26T13:34:25.828Z,27.70
2018-04-26T13:36:53.910Z,27.80
2018-04-26T13:39:20.808Z,27.90
2018-04-26T13:41:47.686Z,27.80
2018-04-26T13:44:14.589Z,27.90
2018-04-26T13:46:41.525Z,28.00
2018-04-26T13:49:09.869Z,28.00
2018-04-26T13:51:37.543Z,27.70
2018-04-26T13:54:04.417Z,27.70
2018-04-26T13:56:31.716Z,27.50
2018-04-26T13:58:58.589Z,27.50
2018-04-26T14:01:26.916Z,27.40
2018-04-26T14:03:53.883Z,27.30
2018-04-26T14:06:20.779Z,27.30
2018-04-26T14:08:47.648Z,27.20
2018-04-26T14:11:14.601Z,27.30
2018-04-26T14:13:43.221Z,27.30
2018-04-26T14:16:10.864Z,27.30
2018-04-26T14:18:37.769Z,27.30
2018-04-26T14:21:04.644Z,27.40
2018-04-26T14:23:31.528Z,27.50
2018-04-26T14:25:58.960Z,27.40
2018-04-26T14:28:26.573Z,27.20
2018-04-26T14:30:53.510Z,27.20
2018-04-26T14:33:21.152Z,27.20
2018-04-26T14:35:48.103Z,27.00
2018-04-26T14:38:15.129Z,27.10
2018-04-26T14:40:42.553Z,27.00
2018-04-26T14:43:09.542Z,27.00
2018-04-26T14:45:36.449Z,26.90
2018-04-26T14:48:03.709Z,27.00
2018-04-26T14:50:31.079Z,27.00
2018-04-26T14:52:58.712Z,26.90
2018-04-26T14:55:26.691Z,26.90
2018-04-26T14:57:53.617Z,26.90
2018-04-26T15:00:20.507Z,26.90
2018-04-26T15:02:49.285Z,26.90
2018-04-26T15:05:16.949Z,26.80
2018-04-26T15:07:43.845Z,26.70
2018-04-26T15:10:10.760Z,26.80
2018-04-26T15:12:37.636Z,26.80
2018-04-26T15:15:04.654Z,26.80
2018-04-26T15:17:33.373Z,26.60
2018-04-26T15:20:00.256Z,26.60
2018-04-26T15:22:27.144Z,26.60
2018-04-26T15:24:54.780Z,26.60
2018-04-26T15:27:22.598Z,26.60
2018-04-26T15:29:49.478Z,26.50
2018-04-26T15:32:17.308Z,26.40
2018-04-26T15:34:44.181Z,26.40
2018-04-26T15:37:11.062Z,26.40
2018-04-26T15:39:38.369Z,26.20
2018-04-26T15:42:05.993Z,26.20
2018-04-26T15:44:33.985Z,26.20
2018-04-26T15:47:00.872Z,26.10
2018-04-26T15:49:27.765Z,26.20
2018-04-26T15:51:55.444Z,26.10
2018-04-26T15:54:34.912Z,26.00
2018-04-26T15:57:32.476Z,25.90
2018-04-26T16:00:12.176Z,25.90
2018-04-26T16:03:00.920Z,25.70
2018-04-26T16:05:40.085Z,25.70
2018-04-26T16:08:25.115Z,25.60
2018-04-26T16:11:10.009Z,25.50
2018-04-26T16:14:00.297Z,25.50
2018-04-26T16:16:47.808Z,25.30
2018-04-26T16:19:32.817Z,25.30
2018-04-26T16:22:18.059Z,25.20
2018-04-26T16:24:56.980Z,25.10
2018-04-26T16:27:42.624Z,25.00
2018-04-26T16:30:21.397Z,25.00
2018-04-26T16:33:06.336Z,24.90
2018-04-26T16:35:47.602Z,24.80
2018-04-26T16:38:29.119Z,24.80
2018-04-26T16:40:56.003Z,24.70
2018-04-26T16:43:22.885Z,24.80
2018-04-26T16:45:49.825Z,24.70
2018-04-26T16:48:16.698Z,24.70
2018-04-26T16:50:43.662Z,24.70
2018-04-26T16:53:11.711Z,24.60
2018-04-26T16:55:38.604Z,24.50
2018-04-26T16:58:05.517Z,24.40
2018-04-26T17:00:33.193Z,24.30
2018-04-26T17:03:00.131Z,24.30
2018-04-26T17:05:27.056Z,24.30
2018-04-26T17:07:53.978Z,24.10
2018-04-26T17:10:21.316Z,24.10
2018-04-26T17:12:48.184Z,24.00
2018-04-26T17:15:15.821Z,23.90
2018-04-26T17:17:42.716Z,23.80
2018-04-26T17:20:10.350Z,23.70
2018-04-26T17:22:38.227Z,23.80
2018-04-26T17:25:05.136Z,23.70
2018-04-26T17:27:32.042Z,23.60
2018-04-26T17:29:59.665Z,23.50
2018-04-26T17:32:26.533Z,23.50
2018-04-26T17:34:53.522Z,23.40
2018-04-26T17:37:21.705Z,23.30
2018-04-26T17:39:49.985Z,23.30
2018-04-26T17:42:16.958Z,23.20
2018-04-26T17:44:43.797Z,23.20
2018-04-26T17:47:10.725Z,23.10
2018-04-26T17:49:37.652Z,23.00
2018-04-26T17:52:04.552Z,23.00
2018-04-26T17:54:31.427Z,22.90
2018-04-26T17:56:58.317Z,22.80
2018-04-26T17:59:25.754Z,22.70
2018-04-26T18:01:52.649Z,22.60
2018-04-26T18:04:20.057Z,22.70
2018-04-26T18:06:46.943Z,22.60
2018-04-26T18:09:14.545Z,22.40
2018-04-26T18:11:41.929Z,22.40
2018-04-26T18:14:08.860Z,22.30
2018-04-26T18:16:35.768Z,22.20
2018-04-26T18:19:02.656Z,22.20
2018-04-26T18:21:29.618Z,22.10
2018-04-26T18:23:57.297Z,22.00
2018-04-26T18:26:24.165Z,21.90
2018-04-26T18:28:52.038Z,21.90
2018-04-26T18:31:18.927Z,21.90
2018-04-26T18:33:45.818Z,21.80
2018-04-26T18:36:12.852Z,21.80
2018-04-26T18:38:39.732Z,21.70
2018-04-26T18:41:06.656Z,21.60
2018-04-26T18:43:34.285Z,21.60
2018-04-26T18:46:01.908Z,21.50
2018-04-26T18:48:28.825Z,21.40
2018-04-26T18:50:57.208Z,21.30
2018-04-26T18:53:24.806Z,21.30
2018-04-26T18:55:51.669Z,21.30
2018-04-26T18:58:18.562Z,21.30
2018-04-26T19:00:47.247Z,21.20
2018-04-26T19:03:14.133Z,21.20
2018-04-26T19:05:41.921Z,21.00
2018-04-26T19:08:08.794Z,21.00
2018-04-26T19:10:35.664Z,20.80
2018-04-26T19:13:04.408Z,20.70
2018-04-26T19:15:31.276Z,20.60
2018-04-26T19:17:58.756Z,20.60
2018-04-26T19:20:26.081Z,20.50
2018-04-26T19:22:53.711Z,20.40
2018-04-26T19:25:20.636Z,20.40
2018-04-26T19:27:47.628Z,20.40
2018-04-26T19:30:15.049Z,20.40
2018-04-26T19:32:42.670Z,20.30
2018-04-26T19:35:09.561Z,20.20
2018-04-26T19:37:37.389Z,20.20
2018-04-26T19:40:04.297Z,20.10
2018-04-26T19:42:31.575Z,20.10
2018-04-26T19:44:58.457Z,20.00
2018-04-26T19:47:26.075Z,19.80
2018-04-26T19:49:53.408Z,19.80
2018-04-26T19:52:20.283Z,19.70
2018-04-26T19:54:47.177Z,19.70
2018-04-26T19:57:14.142Z,19.70
2018-04-26T19:59:41.017Z,19.70
2018-04-26T20:02:08.305Z,19.60
2018-04-26T20:04:36.292Z,19.40
2018-04-26T20:07:03.207Z,19.40
2018-04-26T20:09:30.853Z,19.30
2018-04-26T20:11:58.210Z,19.30
2018-04-26T20:14:25.125Z,19.30
2018-04-26T20:16:52.021Z,19.20
2018-04-26T20:19:19.329Z,19.20
2018-04-26T20:21:46.228Z,19.10
2018-04-26T20:24:13.087Z,19.10
2018-04-26T20:26:41.268Z,19.10
2018-04-26T20:29:08.169Z,19.10
2018-04-26T20:31:35.867Z,19.10
2018-04-26T20:34:03.176Z,19.00
2018-04-26T20:36:30.057Z,19.00
2018-04-26T20:38:57.373Z,18.90
2018-04-26T20:41:25.011Z,18.90
2018-04-26T20:43:52.969Z,18.90
2018-04-26T20:46:19.863Z,18.90
2018-04-26T20:48:46.880Z,18.70
2018-04-26T20:51:13.810Z,18.60
2018-04-26T20:53:40.694Z,18.50
2018-04-26T20:56:09.069Z,18.50
2018-04-26T20:58:35.952Z,18.50
2018-04-26T21:01:02.856Z,18.40
2018-04-26T21:03:30.182Z,18.30
2018-04-26T21:05:57.122Z,18.30
2018-04-26T21:08:25.091Z,18.20
2018-04-26T21:10:52.570Z,18.20
2018-04-26T21:13:19.919Z,18.10
2018-04-26T21:15:46.847Z,18.10
2018-04-26T21:18:14.312Z,18.10
2018-04-26T21:20:41.741Z,18.10
2018-04-26T21:23:08.633Z,18.10
2018-04-26T21:25:37.920Z,18.10
2018-04-26T21:28:04.813Z,18.00
2018-04-26T21:30:31.709Z,18.00
2018-04-26T21:33:00.600Z,18.00
2018-04-26T21:35:27.527Z,17.90
2018-04-26T21:37:54.480Z,17.90
2018-04-26T21:40:21.369Z,17.90
2018-04-26T21:42:48.264Z,17.80
2018-04-26T21:45:15.181Z,17.80
2018-04-26T21:47:42.581Z,17.80
2018-04-26T21:50:15.409Z,17.60
2018-04-26T21:52:48.860Z,17.50
2018-04-26T21:55:21.732Z,17.50
2018-04-26T21:57:56.725Z,17.40
2018-04-26T22:00:29.865Z,17.40
2018-04-26T22:02:56.640Z,17.40
2018-04-26T22:05:25.564Z,17.20
2018-04-26T22:07:52.455Z,17.20
2018-04-26T22:10:20.081Z,16.90
2018-04-26T22:12:47.528Z,16.80
2018-04-26T22:15:14.400Z,16.70
2018-04-26T22:17:41.288Z,16.60
2018-04-26T22:20:09.702Z,16.50
2018-04-26T22:22:36.572Z,16.50
2018-04-26T22:25:03.494Z,16.40
2018-04-26T22:27:30.385Z,16.30
2018-04-26T22:29:57.278Z,16.20
2018-04-26T22:32:24.160Z,16.10
2018-04-26T22:34:52.105Z,16.00
2018-04-26T22:37:20.545Z,16.00
2018-04-26T22:39:47.459Z,16.00
2018-04-26T22:42:14.389Z,16.00
2018-04-26T22:44:41.321Z,16.00
2018-04-26T22:47:08.250Z,15.90
2018-04-26T22:49:36.373Z,15.80
2018-04-26T22:52:03.258Z,15.70
2018-04-26T22:54:30.128Z,15.70
2018-04-26T22:56:57.794Z,15.70
2018-04-26T22:59:24.674Z,15.70
2018-04-26T23:01:51.976Z,15.70
2018-04-26T23:04:20.468Z,15.70
2018-04-26T23:06:47.331Z,15.70
2018-04-26T23:09:14.969Z,15.70
2018-04-26T23:11:41.860Z,15.70
2018-04-26T23:14:08.806Z,15.60
2018-04-26T23:16:35.672Z,15.60
2018-04-26T23:19:03.184Z,15.50
2018-04-26T23:21:30.430Z,15.50
2018-04-26T23:23:58.069Z,15.50
2018-04-26T23:26:27.417Z,15.50
2018-04-26T23:28:54.286Z,15.40
2018-04-26T23:31:21.181Z,15.40
2018-04-26T23:33:49.276Z,15.20
2018-04-26T23:36:16.589Z,15.20
2018-04-26T23:38:44.144Z,15.00
2018-04-26T23:41:11.057Z,15.00
2018-04-26T23:43:37.941Z,14.80
2018-04-26T23:46:05.342Z,14.80
2018-04-26T23:48:32.811Z,14.70
2018-04-26T23:51:00.305Z,14.60
2018-04-26T23:53:27.181Z,14.60
2018-04-26T23:55:54.104Z,14.60
2018-04-26T23:58:22.031Z,14.50
